LXGB/GIB METAR and TAF weather

Enter ICAO airport designator
Station Type Date Time Source
LXGB METAR 2020/07/11 04:50 UTC NOAA

LXGB 110450Z 09010KT 9999 FEW020 22/19 Q1013 RMK BLU


Station Type Date Time Source
LXGB Decoded METAR 2020/07/11 04:50 UTC NOAA

Gibraltar, Gibraltar (LXGB) 36-09N 005-21W 0M
Jul 11, 2020 - 12:50 AM EDT / 2020.07.11 0450 UTC
Wind: from the E (090 degrees) at 12 MPH (10 KT):0
Visibility: greater than 7 mile(s):0
Sky conditions: mostly clear
Temperature: 71 F (22 C)
Dew Point: 66 F (19 C)
Relative Humidity: 83%
Pressure (altimeter): 29.91 in. Hg (1013 hPa)
ob: LXGB 110450Z 09010KT 9999 FEW020 22/19 Q1013 RMK BLU
cycle: 5

Station Type Date Time Source
LXGB TAF 2019/05/20 18:18 UTC NOAA

TAF
AMD TAF
AMD LXGB 202014Z 2018/2222 CNL

Example: see airport list